Terminal Aerodrome Forecast
Issued by NWS Topeka, KS

Home | Current Version | Previous Version | Text Only | Print | Product List | Glossary On
Versions: 1 2 3 4 5 6 7 8 9 10 11 12 13 14 15 16
773
FTUS43 KTOP 241721
TAFTOP
TAF
KTOP 241721Z 2418/2518 16009KT P6SM BKN150
     FM242100 16010KT P6SM FEW035
     FM250300 17010KT P6SM VCTS SCT035CB
     FM251200 17011KT P6SM SCT020 BKN030=

USA.gov is the U.S. government's official web portal to all federal, state and local government web resources and services.